Time;durP1;ratioP1;P1;durP2;ratioP2;P2;SDS_P1;SDS_P2;PMS_P1;PMS_P2;Temp;Humidity;BMP_temperature;BMP_pressure;BME280_temperature;BME280_humidity;BME280_pressure;Samples;Min_cycle;Max_cycle;Signal;HPM_P1;HPM_P2
2022/01/20 00:03:31;;;;;;;25.13;4.63;;;;;;;;;;5037742;28;20073;-68
2022/01/20 00:27:38;;;;;;;27.60;3.30;;;;;;;;;;5037073;28;20053;-68
2022/01/20 00:35:23;;;;;;;32.77;5.80;;;;;;;;;;5038556;28;20071;-68
2022/01/20 00:37:49;;;;;;;21.80;2.87;;;;;;;;;;5035923;28;20049;-68
2022/01/20 00:40:15;;;;;;;20.23;4.03;;;;;;;;;;5037021;28;20042;-68
2022/01/20 00:42:41;;;;;;;21.30;3.00;;;;;;;;;;5028271;28;20045;-68
2022/01/20 00:45:08;;;;;;;26.17;4.00;;;;;;;;;;5038665;28;20547;-68
2022/01/20 00:47:34;;;;;;;23.10;2.83;;;;;;;;;;5042450;28;20044;-68
2022/01/20 00:50:00;;;;;;;9.60;2.70;;;;;;;;;;5039094;28;21371;-68
2022/01/20 00:52:26;;;;;;;18.77;2.57;;;;;;;;;;5032712;28;20111;-68
2022/01/20 00:54:52;;;;;;;16.27;2.53;;;;;;;;;;5022601;28;20033;-68
2022/01/20 00:57:18;;;;;;;17.03;2.90;;;;;;;;;;5029653;28;20137;-68
2022/01/20 00:59:44;;;;;;;15.63;2.50;;;;;;;;;;5031997;28;20121;-68
2022/01/20 01:02:11;;;;;;;20.37;2.93;;;;;;;;;;5038149;28;20080;-69
2022/01/20 01:04:38;;;;;;;14.60;3.00;;;;;;;;;;5034345;28;20041;-69
2022/01/20 01:09:40;;;;;;;31.23;2.90;;;;;;;;;;5035286;28;20053;-68
2022/01/20 01:12:10;;;;;;;22.17;2.50;;;;;;;;;;5037714;28;20065;-68
2022/01/20 01:14:37;;;;;;;25.40;3.50;;;;;;;;;;5031436;28;20057;-68
2022/01/20 01:24:45;;;;;;;25.17;2.83;;;;;;;;;;5037155;28;20086;-68
2022/01/20 01:27:12;;;;;;;21.93;4.50;;;;;;;;;;5034582;28;20041;-68
2022/01/20 01:32:07;;;;;;;14.37;2.40;;;;;;;;;;5030474;28;20045;-68
2022/01/20 01:34:35;;;;;;;15.30;2.27;;;;;;;;;;5032806;28;20057;-68
2022/01/20 01:39:27;;;;;;;18.30;1.77;;;;;;;;;;5019767;28;20128;-68
2022/01/20 01:41:56;;;;;;;9.33;2.00;;;;;;;;;;5011982;28;20044;-68
2022/01/20 01:44:25;;;;;;;11.73;1.90;;;;;;;;;;5007333;28;20068;-69
2022/01/20 01:46:52;;;;;;;10.83;1.37;;;;;;;;;;5027884;28;20499;-69
2022/01/20 01:49:19;;;;;;;10.67;1.40;;;;;;;;;;5028524;28;20400;-68
2022/01/20 01:51:45;;;;;;;15.53;2.60;;;;;;;;;;5027609;28;20107;-68
2022/01/20 01:54:12;;;;;;;12.40;1.50;;;;;;;;;;5027241;28;20120;-68
2022/01/20 01:56:38;;;;;;;18.00;1.40;;;;;;;;;;5027696;28;20053;-68
2022/01/20 01:59:05;;;;;;;10.03;1.40;;;;;;;;;;5028229;28;20045;-68
2022/01/20 02:01:34;;;;;;;8.90;0.97;;;;;;;;;;5027940;28;20049;-68
2022/01/20 02:04:11;;;;;;;10.87;1.30;;;;;;;;;;5027998;28;20083;-68
2022/01/20 02:19:55;;;;;;;8.33;2.03;;;;;;;;;;5027656;28;20053;-68
2022/01/20 02:22:22;;;;;;;10.97;1.77;;;;;;;;;;5026977;28;20049;-68
2022/01/20 02:24:48;;;;;;;11.00;2.43;;;;;;;;;;5026364;28;20389;-68
2022/01/20 02:27:14;;;;;;;9.67;1.30;;;;;;;;;;5026413;28;20056;-68
2022/01/20 02:29:41;;;;;;;10.13;2.07;;;;;;;;;;5021340;28;20045;-68
2022/01/20 02:32:07;;;;;;;16.73;2.00;;;;;;;;;;5024421;28;20061;-68
2022/01/20 02:34:33;;;;;;;9.70;1.60;;;;;;;;;;5026429;28;20046;-68
2022/01/20 02:37:03;;;;;;;11.30;1.97;;;;;;;;;;5020044;28;20056;-69
2022/01/20 02:44:57;;;;;;;6.53;1.60;;;;;;;;;;5027254;28;20124;-68
2022/01/20 02:47:27;;;;;;;16.53;2.23;;;;;;;;;;5026324;28;20418;-69
2022/01/20 02:49:53;;;;;;;10.80;1.90;;;;;;;;;;5024659;28;20046;-68
2022/01/20 02:52:20;;;;;;;11.27;1.87;;;;;;;;;;5022429;28;20514;-68
2022/01/20 02:54:46;;;;;;;13.47;2.03;;;;;;;;;;5020824;28;20037;-68
2022/01/20 02:57:12;;;;;;;13.07;2.97;;;;;;;;;;5026879;28;20099;-68
2022/01/20 02:59:39;;;;;;;14.87;2.30;;;;;;;;;;5025833;28;20095;-69
2022/01/20 03:02:06;;;;;;;15.00;2.50;;;;;;;;;;5025923;28;20124;-68
2022/01/20 03:04:32;;;;;;;13.57;2.20;;;;;;;;;;5025348;28;20046;-68
2022/01/20 03:06:59;;;;;;;14.07;2.33;;;;;;;;;;5025431;28;20510;-68
2022/01/20 03:09:25;;;;;;;18.27;2.07;;;;;;;;;;5025825;28;20045;-68
2022/01/20 03:11:51;;;;;;;13.67;2.03;;;;;;;;;;5027245;28;20095;-67
2022/01/20 03:14:17;;;;;;;15.93;2.67;;;;;;;;;;5026613;28;20042;-68
2022/01/20 03:16:47;;;;;;;26.83;3.33;;;;;;;;;;5026726;28;20518;-68
2022/01/20 03:19:13;;;;;;;15.93;2.40;;;;;;;;;;4992128;28;1075007;-67
2022/01/20 03:21:40;;;;;;;20.50;2.90;;;;;;;;;;5028644;28;20292;-68
2022/01/20 03:24:07;;;;;;;20.97;3.27;;;;;;;;;;5028744;28;20499;-67
2022/01/20 03:26:33;;;;;;;22.93;3.23;;;;;;;;;;5036405;28;20138;-67
2022/01/20 03:28:59;;;;;;;17.53;2.60;;;;;;;;;;5034393;28;20082;-68
2022/01/20 03:31:25;;;;;;;23.47;3.10;;;;;;;;;;5033289;28;20493;-68
2022/01/20 03:33:51;;;;;;;25.60;3.20;;;;;;;;;;5038146;28;20052;-68
2022/01/20 03:36:17;;;;;;;25.77;3.47;;;;;;;;;;5037202;28;20038;-67
2022/01/20 03:38:44;;;;;;;24.10;3.47;;;;;;;;;;5036223;28;20056;-68
2022/01/20 03:41:10;;;;;;;24.00;4.63;;;;;;;;;;5035995;28;20458;-67
2022/01/20 03:43:36;;;;;;;23.40;3.70;;;;;;;;;;5038113;28;20412;-68
2022/01/20 03:46:05;;;;;;;25.87;4.33;;;;;;;;;;5035182;28;20052;-68
2022/01/20 03:48:38;;;;;;;22.27;3.47;;;;;;;;;;5037041;28;20048;-68
2022/01/20 03:51:04;;;;;;;27.37;4.33;;;;;;;;;;5037930;28;20073;-68
2022/01/20 03:53:36;;;;;;;30.97;4.23;;;;;;;;;;5036645;28;20053;-68
2022/01/20 03:56:02;;;;;;;25.57;3.80;;;;;;;;;;5035409;28;20042;-68
2022/01/20 03:58:29;;;;;;;26.37;5.17;;;;;;;;;;5035394;28;20096;-68
2022/01/20 04:00:55;;;;;;;34.37;5.50;;;;;;;;;;5036448;28;20041;-68
2022/01/20 04:03:21;;;;;;;43.20;5.53;;;;;;;;;;5036901;28;20125;-68
2022/01/20 04:08:16;;;;;;;35.33;5.20;;;;;;;;;;5037171;28;20041;-68
2022/01/20 04:10:42;;;;;;;41.93;4.77;;;;;;;;;;5035365;28;20041;-67
2022/01/20 04:13:10;;;;;;;35.57;4.50;;;;;;;;;;5037386;28;20057;-67
2022/01/20 04:15:40;;;;;;;40.07;4.90;;;;;;;;;;5036798;28;20069;-68
2022/01/20 04:18:08;;;;;;;35.83;5.27;;;;;;;;;;5040117;28;20169;-68
2022/01/20 04:20:34;;;;;;;25.90;4.53;;;;;;;;;;5041846;28;20076;-68
2022/01/20 04:23:00;;;;;;;32.73;6.10;;;;;;;;;;5042249;28;20060;-68
2022/01/20 04:25:26;;;;;;;31.13;5.67;;;;;;;;;;5045883;28;20038;-68
2022/01/20 04:27:52;;;;;;;35.77;4.60;;;;;;;;;;5042971;28;20047;-68
2022/01/20 04:30:18;;;;;;;29.67;3.93;;;;;;;;;;5037018;28;20045;-68
2022/01/20 04:32:44;;;;;;;30.07;4.87;;;;;;;;;;5030257;28;20288;-69
2022/01/20 04:35:10;;;;;;;40.93;5.70;;;;;;;;;;5046206;28;20053;-67
2022/01/20 04:37:36;;;;;;;37.73;4.73;;;;;;;;;;5030738;28;20107;-68
2022/01/20 04:40:03;;;;;;;33.83;5.53;;;;;;;;;;5031162;28;20053;-68
2022/01/20 04:42:32;;;;;;;20.50;4.33;;;;;;;;;;5028988;28;20047;-68
2022/01/20 04:45:04;;;;;;;40.60;6.13;;;;;;;;;;5030879;28;20290;-68
2022/01/20 04:47:48;;;;;;;31.07;5.03;;;;;;;;;;5029465;28;20058;-68
2022/01/20 04:58:28;;;;;;;23.93;3.60;;;;;;;;;;5030827;28;20057;-68
2022/01/20 05:00:54;;;;;;;26.83;4.13;;;;;;;;;;5030446;28;20053;-68
2022/01/20 05:03:20;;;;;;;23.90;4.83;;;;;;;;;;5030264;28;20064;-68
2022/01/20 05:05:46;;;;;;;22.10;3.73;;;;;;;;;;5030738;28;20048;-68
2022/01/20 05:08:17;;;;;;;24.07;4.10;;;;;;;;;;5029153;28;20403;-68
2022/01/20 05:10:43;;;;;;;19.63;4.30;;;;;;;;;;5030361;28;20462;-68
2022/01/20 05:13:22;;;;;;;22.43;4.47;;;;;;;;;;5028577;28;20045;-68
2022/01/20 05:15:48;;;;;;;21.87;5.57;;;;;;;;;;5029066;28;20315;-69
2022/01/20 05:18:14;;;;;;;18.20;3.83;;;;;;;;;;5028553;28;20060;-68
2022/01/20 05:20:40;;;;;;;20.17;3.73;;;;;;;;;;5028043;28;20060;-68
2022/01/20 05:23:06;;;;;;;21.47;3.53;;;;;;;;;;5028294;28;20053;-68
2022/01/20 05:25:32;;;;;;;21.07;3.77;;;;;;;;;;5029607;28;20519;-69
2022/01/20 05:27:58;;;;;;;16.30;3.23;;;;;;;;;;5027793;28;20050;-68
2022/01/20 05:30:24;;;;;;;40.17;5.47;;;;;;;;;;5026202;28;20045;-69
2022/01/20 05:32:50;;;;;;;21.93;3.27;;;;;;;;;;5030188;28;20045;-68
2022/01/20 05:35:17;;;;;;;24.90;4.73;;;;;;;;;;5029096;28;20052;-68
2022/01/20 05:37:43;;;;;;;17.67;2.30;;;;;;;;;;5029750;28;20120;-68
2022/01/20 05:40:09;;;;;;;25.37;3.47;;;;;;;;;;5028241;28;20618;-68
2022/01/20 05:42:36;;;;;;;28.07;3.70;;;;;;;;;;5028031;28;20132;-69
2022/01/20 05:45:03;;;;;;;22.43;4.03;;;;;;;;;;5028406;28;20053;-69
2022/01/20 05:47:31;;;;;;;19.53;3.13;;;;;;;;;;5012037;28;20041;-69
2022/01/20 05:49:57;;;;;;;17.33;2.53;;;;;;;;;;5030051;28;20056;-69
2022/01/20 05:52:23;;;;;;;14.40;2.23;;;;;;;;;;5026650;28;20292;-68
2022/01/20 05:54:49;;;;;;;19.47;3.27;;;;;;;;;;5029507;28;20530;-69
2022/01/20 05:57:15;;;;;;;21.77;3.27;;;;;;;;;;5028031;28;20312;-68
2022/01/20 05:59:41;;;;;;;15.60;2.57;;;;;;;;;;5029762;28;20041;-69
2022/01/20 06:02:28;;;;;;;19.07;2.50;;;;;;;;;;5028099;28;20367;-69
2022/01/20 06:04:54;;;;;;;18.57;3.33;;;;;;;;;;5012201;28;20049;-68
2022/01/20 06:07:21;;;;;;;22.93;2.63;;;;;;;;;;5028498;28;20280;-69
2022/01/20 06:09:47;;;;;;;19.80;3.57;;;;;;;;;;5027642;28;20303;-68
2022/01/20 06:12:13;;;;;;;22.03;2.80;;;;;;;;;;5044581;28;20292;-68
2022/01/20 06:14:39;;;;;;;15.67;2.43;;;;;;;;;;5029150;28;20412;-69
2022/01/20 06:17:05;;;;;;;18.57;2.70;;;;;;;;;;5028920;28;20084;-68
2022/01/20 06:19:31;;;;;;;26.60;3.10;;;;;;;;;;5028085;28;20053;-68
2022/01/20 06:21:57;;;;;;;18.53;2.70;;;;;;;;;;5029206;28;20299;-68
2022/01/20 06:24:23;;;;;;;19.73;3.67;;;;;;;;;;5028542;28;20034;-68
2022/01/20 06:26:49;;;;;;;21.47;2.93;;;;;;;;;;5028499;28;20123;-68
2022/01/20 06:29:15;;;;;;;17.13;2.57;;;;;;;;;;5028514;28;20473;-68
2022/01/20 06:31:41;;;;;;;19.03;3.00;;;;;;;;;;5029389;28;20053;-68
2022/01/20 06:34:07;;;;;;;17.13;2.50;;;;;;;;;;5029395;28;20312;-68
2022/01/20 06:36:33;;;;;;;25.93;4.27;;;;;;;;;;5028330;28;20055;-69
2022/01/20 06:38:59;;;;;;;22.73;3.90;;;;;;;;;;5029654;28;20330;-69
2022/01/20 06:41:27;;;;;;;18.63;3.27;;;;;;;;;;5029441;28;21053;-69
2022/01/20 06:43:53;;;;;;;21.30;3.73;;;;;;;;;;5027646;28;20754;-69
2022/01/20 06:46:19;;;;;;;42.23;4.97;;;;;;;;;;5028843;28;20291;-69
2022/01/20 06:48:45;;;;;;;22.53;3.97;;;;;;;;;;5028083;28;20061;-68
2022/01/20 06:51:11;;;;;;;24.10;3.70;;;;;;;;;;5029131;28;20073;-68
2022/01/20 06:53:37;;;;;;;16.73;4.03;;;;;;;;;;5028459;28;20104;-68
2022/01/20 06:56:03;;;;;;;16.73;3.50;;;;;;;;;;5029176;28;20284;-68
2022/01/20 06:58:29;;;;;;;18.40;2.60;;;;;;;;;;5027638;28;20316;-68
2022/01/20 07:00:55;;;;;;;21.13;3.00;;;;;;;;;;5027614;28;20078;-68
2022/01/20 07:03:21;;;;;;;24.80;3.07;;;;;;;;;;5021654;28;20519;-68
2022/01/20 07:05:47;;;;;;;20.30;2.97;;;;;;;;;;5035350;28;20049;-68
2022/01/20 07:08:13;;;;;;;15.30;2.50;;;;;;;;;;5033643;28;20045;-68
2022/01/20 07:10:39;;;;;;;15.27;3.10;;;;;;;;;;5028293;28;20798;-68
2022/01/20 07:13:05;;;;;;;10.23;2.07;;;;;;;;;;5027779;28;20088;-68
2022/01/20 07:15:31;;;;;;;13.13;2.57;;;;;;;;;;5027369;28;20165;-68
2022/01/20 07:17:57;;;;;;;17.40;3.73;;;;;;;;;;5043311;28;21157;-68
2022/01/20 07:20:23;;;;;;;21.73;5.00;;;;;;;;;;5029783;28;20132;-68
2022/01/20 07:22:49;;;;;;;30.87;3.97;;;;;;;;;;5027658;28;20331;-68
2022/01/20 07:25:15;;;;;;;21.97;4.00;;;;;;;;;;5027453;28;20288;-68
2022/01/20 07:27:41;;;;;;;24.97;4.50;;;;;;;;;;5028250;28;20298;-68
2022/01/20 07:30:07;;;;;;;20.03;2.73;;;;;;;;;;5043830;28;20284;-68
2022/01/20 07:32:33;;;;;;;21.27;3.30;;;;;;;;;;5031184;28;20299;-68
2022/01/20 07:34:59;;;;;;;16.73;2.77;;;;;;;;;;5033293;28;20337;-69
2022/01/20 07:37:25;;;;;;;27.27;3.03;;;;;;;;;;5027561;28;20312;-69
2022/01/20 07:39:53;;;;;;;13.53;2.40;;;;;;;;;;5026905;28;20737;-69
2022/01/20 07:42:19;;;;;;;22.07;3.47;;;;;;;;;;5027850;28;20566;-69
2022/01/20 07:44:45;;;;;;;20.43;3.87;;;;;;;;;;5027711;28;20310;-68
2022/01/20 07:47:11;;;;;;;22.97;4.23;;;;;;;;;;5026715;28;20813;-68
2022/01/20 07:49:37;;;;;;;25.30;3.27;;;;;;;;;;5028089;28;20053;-68
2022/01/20 07:52:03;;;;;;;20.37;3.33;;;;;;;;;;5027808;28;20753;-68
2022/01/20 07:54:29;;;;;;;26.97;6.03;;;;;;;;;;5030221;28;20087;-68
2022/01/20 07:56:55;;;;;;;27.63;5.20;;;;;;;;;;5031334;28;20398;-68
2022/01/20 07:59:24;;;;;;;22.10;3.40;;;;;;;;;;5031514;28;20076;-68
2022/01/20 08:01:51;;;;;;;23.80;4.07;;;;;;;;;;5031430;28;20291;-68
2022/01/20 08:04:17;;;;;;;25.50;3.47;;;;;;;;;;5031338;28;20300;-69
2022/01/20 08:06:43;;;;;;;28.00;3.30;;;;;;;;;;5031359;28;20290;-68
2022/01/20 08:09:09;;;;;;;34.10;7.50;;;;;;;;;;5031544;28;20308;-68
2022/01/20 08:11:35;;;;;;;26.93;3.87;;;;;;;;;;5031477;28;20319;-68
2022/01/20 08:14:01;;;;;;;16.73;4.27;;;;;;;;;;5029610;28;20054;-68
2022/01/20 08:16:27;;;;;;;20.17;4.13;;;;;;;;;;5031285;28;20647;-68
2022/01/20 08:18:53;;;;;;;23.60;3.53;;;;;;;;;;5030910;28;20054;-68
2022/01/20 08:21:19;;;;;;;20.83;4.50;;;;;;;;;;5029937;28;20046;-68
2022/01/20 08:23:45;;;;;;;26.80;2.80;;;;;;;;;;5031281;28;20072;-68
2022/01/20 08:26:11;;;;;;;23.03;3.30;;;;;;;;;;5030877;28;20646;-68
2022/01/20 08:28:37;;;;;;;17.73;3.20;;;;;;;;;;5029857;28;20045;-68
2022/01/20 08:31:04;;;;;;;17.40;2.97;;;;;;;;;;5031169;28;20387;-68
2022/01/20 08:33:30;;;;;;;17.20;3.67;;;;;;;;;;5030727;28;20387;-68
2022/01/20 08:35:55;;;;;;;28.73;5.10;;;;;;;;;;5031167;28;20371;-68
2022/01/20 08:38:21;;;;;;;19.00;4.03;;;;;;;;;;5029525;28;20314;-69
2022/01/20 08:40:48;;;;;;;18.43;3.70;;;;;;;;;;5031099;28;20080;-69
2022/01/20 08:43:14;;;;;;;22.43;4.37;;;;;;;;;;5030383;28;20349;-68
2022/01/20 08:45:43;;;;;;;17.63;3.60;;;;;;;;;;5029672;28;20375;-69
2022/01/20 08:48:12;;;;;;;19.93;4.50;;;;;;;;;;5030690;28;20759;-68
2022/01/20 08:50:38;;;;;;;31.93;3.43;;;;;;;;;;5029697;28;20373;-69
2022/01/20 08:53:04;;;;;;;30.80;3.77;;;;;;;;;;5029353;28;20287;-68
2022/01/20 08:55:31;;;;;;;19.50;3.50;;;;;;;;;;5029128;28;20296;-68
2022/01/20 08:57:57;;;;;;;22.63;3.67;;;;;;;;;;5029905;28;20320;-68
2022/01/20 09:00:26;;;;;;;22.60;3.43;;;;;;;;;;5029338;28;20336;-69
2022/01/20 09:02:52;;;;;;;23.70;4.03;;;;;;;;;;5028958;28;20407;-69
2022/01/20 09:05:18;;;;;;;19.97;4.77;;;;;;;;;;5030381;28;20316;-68
2022/01/20 09:07:44;;;;;;;23.13;3.60;;;;;;;;;;5030654;28;20128;-68
2022/01/20 09:10:18;;;;;;;19.93;3.40;;;;;;;;;;5029955;28;20329;-68
2022/01/20 09:15:28;;;;;;;35.93;6.10;;;;;;;;;;5029953;28;20280;-68
2022/01/20 09:18:02;;;;;;;27.30;4.37;;;;;;;;;;5030105;28;20426;-68
2022/01/20 09:20:29;;;;;;;24.85;4.43;;;;;;;;;;5029758;28;20307;-68
2022/01/20 09:22:55;;;;;;;27.70;4.47;;;;;;;;;;5030109;28;20044;-68
2022/01/20 09:25:22;;;;;;;26.07;3.37;;;;;;;;;;5029853;28;20371;-68
2022/01/20 09:27:50;;;;;;;19.87;4.47;;;;;;;;;;5029594;28;20300;-68
2022/01/20 09:30:18;;;;;;;30.63;5.40;;;;;;;;;;5028269;28;20371;-68
2022/01/20 09:32:46;;;;;;;24.30;3.87;;;;;;;;;;5029889;28;20779;-68
2022/01/20 09:35:13;;;;;;;28.70;4.80;;;;;;;;;;5028540;28;20292;-69
2022/01/20 09:37:40;;;;;;;22.80;4.73;;;;;;;;;;5029014;28;20358;-68
2022/01/20 09:40:08;;;;;;;20.20;4.23;;;;;;;;;;5027916;28;20296;-68
2022/01/20 09:42:35;;;;;;;23.13;4.73;;;;;;;;;;5029798;28;20697;-68
2022/01/20 09:45:01;;;;;;;21.97;6.27;;;;;;;;;;5037435;28;20299;-68
2022/01/20 09:47:27;;;;;;;22.90;4.03;;;;;;;;;;5027617;28;20821;-68
2022/01/20 09:49:54;;;;;;;30.07;5.00;;;;;;;;;;5040927;28;20298;-68
2022/01/20 09:52:22;;;;;;;20.37;4.43;;;;;;;;;;5031275;28;20357;-68
2022/01/20 09:54:48;;;;;;;25.00;5.07;;;;;;;;;;5027538;28;20297;-68
2022/01/20 09:57:14;;;;;;;27.67;3.87;;;;;;;;;;5029940;28;20103;-68
2022/01/20 09:59:41;;;;;;;20.40;3.33;;;;;;;;;;5031732;28;20326;-68
2022/01/20 10:02:17;;;;;;;22.83;4.10;;;;;;;;;;5027938;28;20052;-68
2022/01/20 10:04:43;;;;;;;21.13;3.10;;;;;;;;;;5042624;28;20776;-68
2022/01/20 10:07:11;;;;;;;18.07;3.57;;;;;;;;;;5028168;28;20284;-68
2022/01/20 10:09:41;;;;;;;18.60;3.67;;;;;;;;;;5030168;28;20423;-68
2022/01/20 10:12:08;;;;;;;22.57;3.03;;;;;;;;;;5029610;28;20375;-68
2022/01/20 10:14:41;;;;;;;23.80;4.27;;;;;;;;;;5028529;28;20796;-68
2022/01/20 10:17:27;;;;;;;22.00;3.40;;;;;;;;;;5028660;28;20449;-68
2022/01/20 10:19:58;;;;;;;24.80;3.63;;;;;;;;;;5029881;28;20053;-68
2022/01/20 10:22:24;;;;;;;16.33;2.60;;;;;;;;;;5031446;28;20049;-68
2022/01/20 10:25:11;;;;;;;26.60;5.40;;;;;;;;;;5027539;28;20046;-68
2022/01/20 10:27:48;;;;;;;22.33;3.47;;;;;;;;;;5028447;28;20542;-69
2022/01/20 10:30:14;;;;;;;17.30;3.87;;;;;;;;;;5029130;28;20045;-69
2022/01/20 10:32:41;;;;;;;18.77;4.40;;;;;;;;;;5028076;28;20045;-69
2022/01/20 10:35:08;;;;;;;15.40;3.43;;;;;;;;;;5028935;28;20045;-69
2022/01/20 10:37:34;;;;;;;15.87;3.10;;;;;;;;;;5028837;28;20045;-69
2022/01/20 10:40:11;;;;;;;24.20;4.43;;;;;;;;;;5028712;28;20046;-69
2022/01/20 10:42:44;;;;;;;19.63;3.20;;;;;;;;;;5027771;28;20416;-69
2022/01/20 10:45:24;;;;;;;19.17;3.63;;;;;;;;;;5028625;28;20046;-68
2022/01/20 10:47:51;;;;;;;17.10;3.50;;;;;;;;;;5028061;28;20068;-69
2022/01/20 10:50:21;;;;;;;16.23;3.10;;;;;;;;;;5010979;28;20049;-69
2022/01/20 10:52:47;;;;;;;16.97;2.93;;;;;;;;;;5022418;28;20075;-69
2022/01/20 10:55:25;;;;;;;24.97;3.90;;;;;;;;;;5059643;28;20076;-69
2022/01/20 10:57:52;;;;;;;15.17;3.77;;;;;;;;;;5026957;28;20041;-68
2022/01/20 11:00:19;;;;;;;13.30;3.27;;;;;;;;;;5028643;28;20053;-68
2022/01/20 11:02:50;;;;;;;13.97;2.37;;;;;;;;;;5027932;28;20046;-68
2022/01/20 11:05:16;;;;;;;15.43;1.70;;;;;;;;;;5027716;28;20056;-68
2022/01/20 11:07:43;;;;;;;6.80;1.70;;;;;;;;;;5030059;28;20038;-68
2022/01/20 11:10:10;;;;;;;9.90;1.93;;;;;;;;;;5027447;28;20061;-68
2022/01/20 11:12:37;;;;;;;13.93;2.17;;;;;;;;;;5058066;28;20133;-68
2022/01/20 11:15:06;;;;;;;11.93;2.47;;;;;;;;;;5034988;28;20126;-68
2022/01/20 11:17:34;;;;;;;7.50;2.23;;;;;;;;;;5029043;28;20103;-68
2022/01/20 11:20:07;;;;;;;18.77;2.47;;;;;;;;;;5029930;28;20044;-68
2022/01/20 11:22:34;;;;;;;14.53;2.97;;;;;;;;;;5032920;28;20046;-68
2022/01/20 11:25:04;;;;;;;11.10;2.63;;;;;;;;;;5027540;28;20050;-68
2022/01/20 11:27:38;;;;;;;10.53;2.30;;;;;;;;;;5029917;28;20766;-69
2022/01/20 11:30:15;;;;;;;18.70;3.03;;;;;;;;;;5033057;28;20483;-68
2022/01/20 11:32:42;;;;;;;18.47;3.00;;;;;;;;;;5047239;28;20123;-68
2022/01/20 11:35:09;;;;;;;15.00;2.47;;;;;;;;;;5039779;28;20068;-68
2022/01/20 11:37:37;;;;;;;13.47;2.90;;;;;;;;;;5030477;28;20045;-68
2022/01/20 11:40:09;;;;;;;12.70;2.10;;;;;;;;;;5037820;28;20137;-68
2022/01/20 11:42:35;;;;;;;13.60;2.87;;;;;;;;;;5043007;28;20068;-68
2022/01/20 11:45:01;;;;;;;13.93;3.37;;;;;;;;;;5043457;28;20084;-69
2022/01/20 11:47:32;;;;;;;10.07;3.47;;;;;;;;;;5039165;28;20065;-69
2022/01/20 11:49:58;;;;;;;12.80;3.60;;;;;;;;;;5033000;28;20133;-68
2022/01/20 11:52:25;;;;;;;12.67;2.90;;;;;;;;;;5030832;28;20076;-69
2022/01/20 11:54:51;;;;;;;9.27;4.00;;;;;;;;;;5046196;28;20052;-69
2022/01/20 11:57:20;;;;;;;13.83;3.70;;;;;;;;;;5032979;28;20064;-69
2022/01/20 11:59:48;;;;;;;14.80;2.80;;;;;;;;;;5031142;28;20049;-69
2022/01/20 12:02:23;;;;;;;12.87;2.57;;;;;;;;;;5030870;28;20089;-69
2022/01/20 12:04:51;;;;;;;14.17;3.77;;;;;;;;;;5036719;28;20050;-69
2022/01/20 12:07:28;;;;;;;12.00;2.83;;;;;;;;;;5042313;28;20336;-69
2022/01/20 12:10:05;;;;;;;15.63;3.73;;;;;;;;;;5037902;28;20088;-70
2022/01/20 12:12:32;;;;;;;19.10;4.20;;;;;;;;;;5031589;28;20080;-69
2022/01/20 12:15:06;;;;;;;12.33;2.03;;;;;;;;;;5030154;28;20107;-70
2022/01/20 12:17:32;;;;;;;16.87;3.70;;;;;;;;;;5028628;28;20046;-69
2022/01/20 12:19:58;;;;;;;11.37;2.73;;;;;;;;;;5044142;28;20049;-71
2022/01/20 12:22:24;;;;;;;11.37;2.17;;;;;;;;;;5030287;28;20499;-70
2022/01/20 12:24:51;;;;;;;13.33;2.93;;;;;;;;;;5040552;28;20049;-70
2022/01/20 12:27:18;;;;;;;13.53;3.33;;;;;;;;;;5038459;28;20077;-68
2022/01/20 12:29:44;;;;;;;8.60;4.17;;;;;;;;;;5029176;28;20045;-67
2022/01/20 12:32:14;;;;;;;13.67;3.07;;;;;;;;;;5030172;28;20052;-67
2022/01/20 12:34:41;;;;;;;15.57;2.50;;;;;;;;;;5030494;28;20053;-68
2022/01/20 12:37:07;;;;;;;13.90;3.47;;;;;;;;;;5012960;28;20046;-68
2022/01/20 12:39:35;;;;;;;12.33;2.37;;;;;;;;;;5029380;28;20061;-68
2022/01/20 12:42:02;;;;;;;15.17;2.27;;;;;;;;;;5028895;28;20073;-67
2022/01/20 12:44:46;;;;;;;14.27;2.87;;;;;;;;;;5030340;28;20048;-68
2022/01/20 12:47:12;;;;;;;11.05;2.38;;;;;;;;;;5027036;28;20038;-68
2022/01/20 12:49:39;;;;;;;16.37;2.53;;;;;;;;;;5029127;28;20041;-69
2022/01/20 12:52:06;;;;;;;7.87;2.73;;;;;;;;;;5023574;28;20588;-68
2022/01/20 12:54:33;;;;;;;15.83;3.17;;;;;;;;;;5010549;28;20038;-69
2022/01/20 12:57:04;;;;;;;16.80;3.30;;;;;;;;;;5029893;28;20582;-68
2022/01/20 12:59:31;;;;;;;14.23;2.63;;;;;;;;;;5030576;28;20136;-68
2022/01/20 13:02:01;;;;;;;13.97;3.00;;;;;;;;;;5027462;28;20624;-69
2022/01/20 13:04:28;;;;;;;13.03;3.50;;;;;;;;;;5029159;28;20136;-69
2022/01/20 13:06:57;;;;;;;18.40;3.17;;;;;;;;;;5029667;28;20115;-69
2022/01/20 13:09:25;;;;;;;12.90;3.23;;;;;;;;;;5008924;28;20054;-69
2022/01/20 13:11:59;;;;;;;13.57;3.80;;;;;;;;;;5009246;28;20065;-70
2022/01/20 13:14:32;;;;;;;18.37;4.13;;;;;;;;;;5009244;28;20049;-69
2022/01/20 13:16:59;;;;;;;19.15;3.45;;;;;;;;;;5027862;28;20048;-70
2022/01/20 13:19:37;;;;;;;18.70;3.37;;;;;;;;;;5027817;28;20160;-70
2022/01/20 13:22:05;;;;;;;21.47;4.60;;;;;;;;;;5034225;28;20136;-70
2022/01/20 13:24:32;;;;;;;18.43;3.17;;;;;;;;;;5028577;28;20054;-69
2022/01/20 13:26:59;;;;;;;14.83;3.47;;;;;;;;;;5028172;28;20053;-70
2022/01/20 13:29:26;;;;;;;14.87;3.47;;;;;;;;;;5028761;28;20053;-69
2022/01/20 13:31:55;;;;;;;16.40;3.50;;;;;;;;;;5027979;28;20045;-70
2022/01/20 13:34:21;;;;;;;10.13;2.87;;;;;;;;;;5029169;28;20079;-70
2022/01/20 13:36:48;;;;;;;14.63;3.40;;;;;;;;;;5028344;28;20503;-70
2022/01/20 13:39:15;;;;;;;17.97;3.83;;;;;;;;;;5010250;28;20056;-70
2022/01/20 13:41:43;;;;;;;12.67;2.77;;;;;;;;;;5028067;28;20053;-71
2022/01/20 13:47:05;;;;;;;12.20;3.50;;;;;;;;;;5027229;28;20128;-71
2022/01/20 13:49:31;;;;;;;14.10;3.27;;;;;;;;;;5018443;28;20049;-71
2022/01/20 13:52:09;;;;;;;21.20;3.93;;;;;;;;;;5022220;28;20045;-71
2022/01/20 13:54:55;;;;;;;17.73;2.77;;;;;;;;;;5021166;28;20056;-71
2022/01/20 13:57:23;;;;;;;13.40;2.80;;;;;;;;;;5008380;28;20054;-71
2022/01/20 13:59:51;;;;;;;12.87;2.57;;;;;;;;;;5008174;28;20045;-71
2022/01/20 14:02:17;;;;;;;15.27;3.60;;;;;;;;;;5028331;28;20439;-72
2022/01/20 14:04:43;;;;;;;13.67;3.33;;;;;;;;;;5029424;28;20051;-71
2022/01/20 14:07:10;;;;;;;11.53;2.20;;;;;;;;;;5029554;28;20081;-71
2022/01/20 14:09:36;;;;;;;14.03;3.07;;;;;;;;;;5027321;28;20128;-71
2022/01/20 14:12:02;;;;;;;13.73;2.80;;;;;;;;;;5021578;28;20049;-72
2022/01/20 14:14:29;;;;;;;10.87;2.33;;;;;;;;;;5009318;28;20065;-71
2022/01/20 14:16:55;;;;;;;11.20;2.37;;;;;;;;;;5015210;28;20047;-71
2022/01/20 14:19:23;;;;;;;14.87;2.67;;;;;;;;;;5027581;28;20053;-71
2022/01/20 14:21:50;;;;;;;16.90;3.07;;;;;;;;;;5027979;28;20128;-71
2022/01/20 14:24:16;;;;;;;20.97;2.93;;;;;;;;;;5026532;28;20495;-71
2022/01/20 14:26:44;;;;;;;17.77;3.20;;;;;;;;;;5029000;28;20470;-71
2022/01/20 14:29:13;;;;;;;15.57;2.60;;;;;;;;;;5027967;28;20045;-71
2022/01/20 14:31:39;;;;;;;9.67;2.30;;;;;;;;;;5027426;28;20046;-71
2022/01/20 14:34:05;;;;;;;19.37;3.07;;;;;;;;;;5028380;28;20033;-71
2022/01/20 14:36:31;;;;;;;7.87;2.10;;;;;;;;;;5027643;28;20163;-71
2022/01/20 14:38:57;;;;;;;11.73;2.83;;;;;;;;;;5027922;28;20065;-72
2022/01/20 14:41:23;;;;;;;12.13;2.13;;;;;;;;;;5026146;28;20488;-72
2022/01/20 14:43:49;;;;;;;11.70;2.67;;;;;;;;;;5027606;28;20045;-72
2022/01/20 14:46:15;;;;;;;11.57;2.40;;;;;;;;;;5027666;28;20041;-71
2022/01/20 14:48:41;;;;;;;11.80;2.10;;;;;;;;;;5025778;28;20125;-72
2022/01/20 14:51:08;;;;;;;8.63;1.43;;;;;;;;;;5026464;28;20389;-72
2022/01/20 14:53:35;;;;;;;9.70;1.60;;;;;;;;;;5027565;28;20051;-71
2022/01/20 14:56:01;;;;;;;10.13;1.67;;;;;;;;;;5026614;28;20050;-71
2022/01/20 14:58:29;;;;;;;9.43;2.47;;;;;;;;;;5026733;28;20407;-71
2022/01/20 15:00:55;;;;;;;7.30;1.43;;;;;;;;;;5026330;28;20132;-72
2022/01/20 15:03:21;;;;;;;5.73;1.70;;;;;;;;;;5027385;28;20056;-71
2022/01/20 15:05:47;;;;;;;10.27;1.80;;;;;;;;;;5030406;28;20049;-72
2022/01/20 15:08:14;;;;;;;4.50;1.60;;;;;;;;;;5027558;28;20050;-72
2022/01/20 15:10:40;;;;;;;12.27;1.87;;;;;;;;;;5028545;28;20471;-71
2022/01/20 15:13:06;;;;;;;16.03;2.50;;;;;;;;;;5026698;28;20057;-71
2022/01/20 15:15:34;;;;;;;9.33;1.47;;;;;;;;;;5027163;28;20107;-71
2022/01/20 15:18:00;;;;;;;14.60;2.17;;;;;;;;;;5026358;28;20061;-71
2022/01/20 15:20:26;;;;;;;12.13;2.40;;;;;;;;;;5027877;28;20056;-71
2022/01/20 15:22:52;;;;;;;11.67;3.07;;;;;;;;;;5028079;28;20045;-71
2022/01/20 15:25:18;;;;;;;10.67;3.27;;;;;;;;;;5026738;28;20491;-71
2022/01/20 15:27:44;;;;;;;10.00;1.93;;;;;;;;;;5026078;28;20076;-71
2022/01/20 15:30:10;;;;;;;12.30;1.83;;;;;;;;;;5028093;28;20042;-71
2022/01/20 15:32:36;;;;;;;12.27;1.80;;;;;;;;;;5026319;28;20046;-71
2022/01/20 15:35:03;;;;;;;17.83;2.57;;;;;;;;;;5010614;28;20093;-71
2022/01/20 15:37:29;;;;;;;19.90;2.00;;;;;;;;;;5036743;28;20111;-71
2022/01/20 15:39:55;;;;;;;13.47;2.60;;;;;;;;;;5025087;28;20079;-70
2022/01/20 15:42:21;;;;;;;10.67;1.87;;;;;;;;;;5006272;28;20316;-71
2022/01/20 15:44:47;;;;;;;9.60;2.20;;;;;;;;;;5007353;28;20100;-72
2022/01/20 15:47:13;;;;;;;11.03;1.60;;;;;;;;;;5023870;28;20087;-72
2022/01/20 15:49:39;;;;;;;14.87;2.30;;;;;;;;;;5027082;28;20110;-72
2022/01/20 15:52:05;;;;;;;11.30;2.93;;;;;;;;;;5009575;28;20053;-72